Time;durP1;ratioP1;P1;durP2;ratioP2;P2;SDS_P1;SDS_P2;PMS_P1;PMS_P2;Temp;Humidity;BMP_temperature;BMP_pressure;BME280_temperature;BME280_humidity;BME280_pressure;Samples;Min_cycle;Max_cycle;Signal;HPM_P1;HPM_P2
2022/07/22 00:01:45;;;;;;;5.37;1.77;;;18.50;52.90;;;;;;5053286;28;20463;-73
2022/07/22 00:04:29;;;;;;;4.67;2.43;;;18.40;58.50;;;;;;5052956;28;20429;-74
2022/07/22 00:07:08;;;;;;;;;;;;;;;;;;;;;
2022/07/22 00:09:34;;;;;;;7.80;3.77;;;18.30;52.90;;;;;;5054287;28;20393;-67
2022/07/22 00:12:00;;;;;;;5.83;2.40;;;18.40;61.20;;;;;;5054103;28;20401;-70
2022/07/22 00:14:26;;;;;;;8.40;2.57;;;18.30;52.60;;;;;;5053362;28;20426;-66
2022/07/22 00:16:54;;;;;;;5.00;2.10;;;18.30;46.60;;;;;;5052672;28;20433;-73
2022/07/22 00:19:21;;;;;;;4.33;1.50;;;18.20;39.20;;;;;;5053292;28;20168;-73
2022/07/22 00:21:47;;;;;;;5.50;2.33;;;18.20;36.00;;;;;;5052725;28;20817;-67
2022/07/22 00:24:13;;;;;;;8.53;2.30;;;18.10;34.20;;;;;;5053134;28;20425;-67
2022/07/22 00:26:39;;;;;;;2.10;2.00;;;18.10;28.00;;;;;;5052806;28;20422;-73
2022/07/22 00:29:05;;;;;;;3.10;1.80;;;18.10;36.40;;;;;;5052894;28;20940;-73
2022/07/22 00:31:31;;;;;;;5.63;1.73;;;18.00;36.50;;;;;;5053324;28;20175;-68
2022/07/22 00:34:00;;;;;;;2.63;2.23;;;18.00;35.70;;;;;;5052781;28;20465;-73
2022/07/22 00:36:27;;;;;;;4.27;2.37;;;18.00;37.30;;;;;;5053739;28;20936;-73
2022/07/22 00:38:53;;;;;;;7.67;2.47;;;18.00;46.50;;;;;;5052468;28;20406;-67
2022/07/22 00:41:19;;;;;;;6.00;2.60;;;18.00;71.70;;;;;;5053801;28;20555;-73
2022/07/22 00:43:53;;;;;;;3.33;2.80;;;17.90;88.70;;;;;;5051933;28;20445;-67
2022/07/22 00:46:19;;;;;;;6.17;2.93;;;17.90;94.50;;;;;;5053535;28;20401;-67
2022/07/22 00:48:48;;;;;;;5.53;3.63;;;17.90;94.90;;;;;;5052688;28;20414;-66
2022/07/22 00:51:15;;;;;;;5.90;2.77;;;17.80;94.90;;;;;;5053366;28;20413;-67
2022/07/22 00:53:41;;;;;;;6.00;2.90;;;17.80;94.90;;;;;;5051929;28;20457;-67
2022/07/22 00:56:07;;;;;;;12.80;3.77;;;17.70;94.80;;;;;;5053513;28;20805;-66
2022/07/22 00:58:33;;;;;;;8.60;3.13;;;17.80;94.90;;;;;;5053440;28;20520;-66
2022/07/22 01:01:00;;;;;;;5.17;3.13;;;17.80;99.90;;;;;;5053348;28;20397;-74
2022/07/22 01:03:25;;;;;;;3.40;2.20;;;17.80;99.90;;;;;;5052630;28;20627;-66
2022/07/22 01:05:52;;;;;;;9.30;3.13;;;17.70;99.90;;;;;;5052086;28;20429;-66
2022/07/22 01:08:18;;;;;;;6.27;2.50;;;17.70;99.90;;;;;;5053271;28;20203;-75
2022/07/22 01:10:44;;;;;;;5.00;2.83;;;17.60;99.90;;;;;;5053266;28;20480;-75
2022/07/22 01:13:10;;;;;;;4.47;1.90;;;17.50;99.90;;;;;;5050491;28;20449;-68
2022/07/22 01:15:35;;;;;;;4.47;2.50;;;17.40;99.90;;;;;;5052931;28;20452;-70
2022/07/22 01:18:01;;;;;;;6.20;2.00;;;17.20;99.90;;;;;;5052258;28;20174;-68
2022/07/22 01:20:27;;;;;;;3.37;2.63;;;17.10;99.90;;;;;;5053042;28;20186;-68
2022/07/22 01:22:56;;;;;;;3.57;2.07;;;17.00;99.90;;;;;;5051162;28;20414;-69
2022/07/22 01:25:22;;;;;;;3.60;3.20;;;16.90;99.90;;;;;;5053156;28;20429;-75
2022/07/22 01:27:47;;;;;;;6.13;2.30;;;16.80;99.90;;;;;;5053085;28;20478;-68
2022/07/22 01:30:13;;;;;;;3.20;2.30;;;16.80;99.90;;;;;;5051971;28;20175;-69
2022/07/22 01:32:39;;;;;;;3.40;1.70;;;16.70;99.90;;;;;;5050320;28;20208;-76
2022/07/22 01:35:05;;;;;;;5.67;2.00;;;16.70;99.90;;;;;;5052262;28;20499;-68
2022/07/22 01:37:33;;;;;;;3.93;2.10;;;16.60;99.90;;;;;;5052661;28;20625;-75
2022/07/22 01:39:59;;;;;;;5.63;3.30;;;16.60;99.90;;;;;;5052960;28;20420;-76
2022/07/22 01:42:25;;;;;;;1.73;1.50;;;16.50;99.90;;;;;;5050871;28;20458;-69
2022/07/22 01:44:51;;;;;;;1.90;1.80;;;16.60;99.90;;;;;;5052703;28;20429;-69
2022/07/22 01:47:17;;;;;;;2.40;2.07;;;16.50;99.90;;;;;;5051633;28;20409;-68
2022/07/22 01:49:43;;;;;;;8.53;2.17;;;16.50;99.90;;;;;;5050880;28;20266;-70
2022/07/22 01:52:09;;;;;;;4.60;2.73;;;16.30;99.90;;;;;;5050689;28;20174;-74
2022/07/22 01:54:35;;;;;;;5.60;2.77;;;16.30;99.90;;;;;;5052723;28;20448;-76
2022/07/22 01:57:02;;;;;;;4.53;2.13;;;16.30;99.90;;;;;;5052748;28;20234;-76
2022/07/22 01:59:28;;;;;;;5.37;2.10;;;16.30;99.90;;;;;;5051461;28;20459;-68
2022/07/22 02:01:54;;;;;;;4.27;1.90;;;16.20;99.90;;;;;;5051677;28;20936;-67
2022/07/22 02:04:20;;;;;;;7.97;2.40;;;16.20;99.90;;;;;;5052062;28;20441;-76
2022/07/22 02:06:46;;;;;;;4.17;2.17;;;16.30;99.90;;;;;;5050848;28;20417;-68
2022/07/22 02:09:13;;;;;;;4.80;2.03;;;16.20;99.90;;;;;;5052268;28;20409;-68
2022/07/22 02:11:39;;;;;;;3.20;1.87;;;16.30;99.90;;;;;;5052598;28;20175;-76
2022/07/22 02:14:05;;;;;;;3.07;1.70;;;16.30;99.90;;;;;;5050600;28;20464;-67
2022/07/22 02:16:31;;;;;;;2.10;2.00;;;16.30;99.90;;;;;;5052501;28;20417;-67
2022/07/22 02:22:13;;;;;;;1.60;1.50;;;16.20;99.90;;;;;;5051878;28;20444;-67
2022/07/22 02:24:39;;;;;;;9.20;2.57;;;16.00;99.90;;;;;;5050633;28;20432;-77
2022/07/22 02:27:05;;;;;;;1.70;1.60;;;16.00;99.90;;;;;;5051382;28;20417;-76
2022/07/22 02:29:32;;;;;;;2.73;1.80;;;16.00;99.90;;;;;;5052577;28;20250;-69
2022/07/22 02:31:59;;;;;;;2.80;1.43;;;16.00;99.90;;;;;;5052312;28;20175;-68
2022/07/22 02:34:25;;;;;;;3.97;1.73;;;16.00;99.90;;;;;;5051696;28;21038;-68
2022/07/22 02:36:51;;;;;;;2.47;1.80;;;15.90;99.90;;;;;;5052343;28;20492;-70
2022/07/22 02:39:17;;;;;;;1.57;1.47;;;16.00;99.90;;;;;;5052276;28;20901;-76
2022/07/22 02:41:43;;;;;;;3.97;1.73;;;16.00;99.90;;;;;;5051342;28;20413;-68
2022/07/22 02:44:09;;;;;;;2.13;1.70;;;15.90;99.90;;;;;;5050719;28;20441;-69
2022/07/22 02:46:35;;;;;;;3.17;1.73;;;15.90;99.90;;;;;;5052613;28;20182;-76
2022/07/22 02:49:02;;;;;;;3.53;1.90;;;15.80;99.90;;;;;;5053233;28;20512;-75
2022/07/22 02:51:28;;;;;;;4.70;1.80;;;15.80;99.90;;;;;;5054605;28;20425;-68
2022/07/22 02:53:54;;;;;;;3.93;1.60;;;15.70;99.90;;;;;;5054983;28;20518;-75
2022/07/22 02:56:20;;;;;;;1.97;1.87;;;15.70;99.90;;;;;;5055771;28;20620;-69
2022/07/22 02:58:51;;;;;;;6.10;1.77;;;15.80;99.90;;;;;;5055949;28;20433;-68
2022/07/22 03:01:39;;;;;;;2.77;2.17;;;15.80;99.90;;;;;;5055005;28;21016;-70
2022/07/22 03:04:04;;;;;;;4.50;2.90;;;15.80;99.90;;;;;;5054465;28;20481;-76
2022/07/22 03:06:33;;;;;;;4.57;2.00;;;15.70;99.90;;;;;;5054559;28;20409;-76
2022/07/22 03:09:17;;;;;;;2.93;1.93;;;15.60;99.90;;;;;;5055517;28;20420;-68
2022/07/22 03:11:43;;;;;;;3.13;2.00;;;15.50;99.90;;;;;;5055384;28;20736;-76
2022/07/22 03:14:09;;;;;;;2.10;2.00;;;15.60;99.90;;;;;;5053408;28;20464;-69
2022/07/22 03:16:35;;;;;;;6.47;1.90;;;15.60;99.90;;;;;;5055310;28;20720;-68
2022/07/22 03:19:01;;;;;;;3.40;1.93;;;15.60;99.90;;;;;;5053893;28;20409;-69
2022/07/22 03:21:27;;;;;;;4.47;2.10;;;15.60;99.90;;;;;;5054549;28;20258;-70
2022/07/22 03:23:53;;;;;;;2.50;2.00;;;15.70;99.90;;;;;;5054510;28;20441;-68
2022/07/22 03:26:23;;;;;;;2.30;2.00;;;15.70;99.90;;;;;;5055225;28;20171;-76
2022/07/22 03:28:49;;;;;;;2.67;2.00;;;15.80;99.90;;;;;;5054988;28;20467;-74
2022/07/22 03:31:15;;;;;;;3.90;2.20;;;15.80;99.90;;;;;;5054054;28;20783;-76
2022/07/22 03:33:54;;;;;;;2.47;2.17;;;15.70;99.90;;;;;;5054172;28;20586;-76
2022/07/22 03:36:20;;;;;;;2.90;2.40;;;15.70;99.90;;;;;;5053732;28;20186;-76
2022/07/22 03:38:46;;;;;;;6.30;2.33;;;15.70;99.90;;;;;;5052950;28;20917;-69
2022/07/22 03:41:12;;;;;;;5.13;2.10;;;15.70;99.90;;;;;;5054898;28;20713;-70
2022/07/22 03:43:38;;;;;;;3.63;2.53;;;15.80;99.90;;;;;;5052628;28;20468;-76
2022/07/22 03:46:04;;;;;;;7.57;3.33;;;15.80;99.90;;;;;;5053674;28;20452;-68
2022/07/22 03:48:32;;;;;;;7.53;2.33;;;15.80;99.90;;;;;;5054733;28;20649;-69
2022/07/22 03:50:58;;;;;;;12.73;2.90;;;15.80;99.90;;;;;;5053695;28;20451;-69
2022/07/22 03:53:24;;;;;;;5.80;2.50;;;15.80;99.90;;;;;;5053886;28;20543;-71
2022/07/22 03:55:50;;;;;;;3.83;2.30;;;15.90;99.90;;;;;;5053098;28;20185;-72
2022/07/22 03:58:17;;;;;;;4.30;2.30;;;15.80;99.90;;;;;;5053680;28;20147;-70
2022/07/22 04:00:44;;;;;;;5.60;3.00;;;15.90;99.90;;;;;;5053226;28;20424;-77
2022/07/22 04:03:31;;;;;;;;;;;;;;;;;;;;;
2022/07/22 04:05:57;;;;;;;3.93;2.43;;;15.80;99.90;;;;;;5054281;28;20417;-75
2022/07/22 04:08:23;;;;;;;4.00;2.53;;;15.90;99.90;;;;;;5053381;28;20520;-69
2022/07/22 04:10:49;;;;;;;3.00;2.60;;;15.90;99.90;;;;;;5053445;28;20426;-69
2022/07/22 04:13:14;;;;;;;6.03;2.60;;;15.90;99.90;;;;;;5053326;28;20501;-75
2022/07/22 04:15:40;;;;;;;4.83;2.80;;;15.90;99.90;;;;;;5052129;28;20210;-69
2022/07/22 04:18:06;;;;;;;7.80;2.70;;;15.80;99.90;;;;;;5052894;28;20171;-69
2022/07/22 04:20:32;;;;;;;4.40;2.80;;;15.80;99.90;;;;;;5054101;28;20175;-70
2022/07/22 04:22:58;;;;;;;11.93;3.50;;;15.80;99.90;;;;;;5053453;28;20225;-69
2022/07/22 04:25:24;;;;;;;3.53;3.07;;;15.70;99.90;;;;;;5052766;28;20663;-76
2022/07/22 04:27:52;;;;;;;7.03;2.90;;;15.70;99.90;;;;;;5053950;28;20409;-75
2022/07/22 04:30:18;;;;;;;9.67;2.80;;;15.70;99.90;;;;;;5053962;28;20183;-75
2022/07/22 04:33:34;;;;;;;5.30;3.00;;;15.70;99.90;;;;;;5052053;28;20539;-72
2022/07/22 04:36:01;;;;;;;7.50;2.50;;;15.90;99.90;;;;;;5052110;28;20406;-76
2022/07/22 04:38:27;;;;;;;8.57;2.70;;;15.80;99.90;;;;;;5052436;28;20410;-76
2022/07/22 04:40:53;;;;;;;5.67;2.87;;;15.80;99.90;;;;;;5053815;28;20384;-75
2022/07/22 04:43:19;;;;;;;8.33;3.30;;;15.80;99.90;;;;;;5051794;28;20441;-77
2022/07/22 04:45:45;;;;;;;6.33;2.80;;;15.90;99.90;;;;;;5053675;28;20175;-70
2022/07/22 04:48:10;;;;;;;6.77;3.50;;;15.90;99.90;;;;;;5053580;28;20175;-70
2022/07/22 04:50:37;;;;;;;5.90;2.87;;;15.80;99.90;;;;;;5052243;28;20179;-76
2022/07/22 04:53:03;;;;;;;8.43;3.00;;;15.80;99.90;;;;;;5052406;28;20194;-73
2022/07/22 04:55:29;;;;;;;9.10;3.67;;;15.90;99.90;;;;;;5051764;28;20441;-76
2022/07/22 04:57:55;;;;;;;7.97;2.97;;;15.90;99.90;;;;;;5052421;28;20504;-75
2022/07/22 05:00:22;;;;;;;7.17;3.00;;;16.00;99.90;;;;;;5053368;28;20233;-69
2022/07/22 05:02:47;;;;;;;7.43;3.60;;;16.10;99.90;;;;;;5051818;28;20433;-76
2022/07/22 05:05:13;;;;;;;10.33;3.40;;;16.20;99.90;;;;;;5053134;28;20429;-69
2022/07/22 05:07:39;;;;;;;5.67;3.50;;;16.20;99.90;;;;;;5052294;28;20175;-69
2022/07/22 05:10:05;;;;;;;7.07;3.77;;;16.20;99.90;;;;;;5053002;28;20175;-76
2022/07/22 05:12:31;;;;;;;11.00;3.93;;;16.20;99.90;;;;;;5052150;28;20261;-76
2022/07/22 05:14:58;;;;;;;6.90;3.37;;;16.20;99.90;;;;;;5052191;28;20480;-70
2022/07/22 05:17:23;;;;;;;15.07;3.80;;;16.20;99.90;;;;;;5052232;28;20416;-69
2022/07/22 05:19:49;;;;;;;7.60;3.27;;;16.30;99.90;;;;;;5052041;28;20413;-69
2022/07/22 05:22:15;;;;;;;6.17;2.90;;;16.30;99.90;;;;;;5052388;28;20242;-68
2022/07/22 05:24:44;;;;;;;12.00;3.27;;;16.20;99.90;;;;;;5052076;28;20429;-76
2022/07/22 05:27:10;;;;;;;12.80;3.33;;;16.20;99.90;;;;;;5051786;28;20392;-76
2022/07/22 05:29:36;;;;;;;5.23;2.90;;;16.30;99.90;;;;;;5052969;28;20408;-69
2022/07/22 05:32:02;;;;;;;9.73;3.03;;;16.40;99.90;;;;;;5052933;28;20481;-69
2022/07/22 05:34:28;;;;;;;9.33;4.30;;;16.50;99.90;;;;;;5049947;28;20211;-76
2022/07/22 05:36:54;;;;;;;5.90;3.23;;;16.50;99.90;;;;;;5051901;28;20464;-75
2022/07/22 05:39:22;;;;;;;9.73;2.97;;;16.40;99.90;;;;;;5052979;28;20171;-74
2022/07/22 05:42:08;;;;;;;9.90;3.63;;;16.50;99.90;;;;;;5052862;28;20170;-74
2022/07/22 05:44:47;;;;;;;;;;;;;;;;;;;;;
2022/07/22 05:47:13;;;;;;;8.50;2.57;;;16.60;99.90;;;;;;5052840;28;20419;-75
2022/07/22 05:49:39;;;;;;;11.67;3.40;;;16.60;99.90;;;;;;5051763;28;20496;-74
2022/07/22 05:52:05;;;;;;;4.73;3.27;;;16.50;99.90;;;;;;5052425;28;20225;-74
2022/07/22 05:54:52;;;;;;;9.03;3.20;;;16.50;99.90;;;;;;5051353;28;20487;-74
2022/07/22 05:57:17;;;;;;;6.73;2.83;;;16.60;99.90;;;;;;5052651;28;20179;-73
2022/07/22 05:59:43;;;;;;;11.93;3.57;;;16.70;99.90;;;;;;5052665;28;20406;-75
2022/07/22 06:02:16;;;;;;;13.83;4.10;;;16.80;99.90;;;;;;5052424;28;20399;-69
2022/07/22 06:08:19;;;;;;;10.60;3.47;;;16.80;99.90;;;;;;5052679;28;20455;-75
2022/07/22 06:10:48;;;;;;;5.73;2.37;;;16.80;99.90;;;;;;5052607;28;20409;-69
2022/07/22 06:13:14;;;;;;;6.83;2.87;;;16.90;99.90;;;;;;5050995;28;20460;-69
2022/07/22 06:15:40;;;;;;;12.00;3.67;;;17.10;99.90;;;;;;5052108;28;20456;-70
2022/07/22 06:18:06;;;;;;;10.53;3.00;;;17.30;99.90;;;;;;5052687;28;20397;-76
2022/07/22 06:20:35;;;;;;;6.80;2.50;;;17.40;99.90;;;;;;5052573;28;20754;-73
2022/07/22 06:23:01;;;;;;;5.70;3.20;;;17.30;99.90;;;;;;5054236;28;20397;-69
2022/07/22 06:25:27;;;;;;;7.53;3.20;;;17.20;99.90;;;;;;5056372;28;20511;-76
2022/07/22 06:27:53;;;;;;;11.20;3.37;;;17.20;99.90;;;;;;5056235;28;20543;-76
2022/07/22 06:30:26;;;;;;;8.17;2.70;;;17.20;99.90;;;;;;5056283;28;20543;-70
2022/07/22 06:32:52;;;;;;;6.33;5.17;;;17.20;99.90;;;;;;5054411;28;20456;-70
2022/07/22 06:35:18;;;;;;;9.03;3.93;;;17.20;99.90;;;;;;5056242;28;20417;-75
2022/07/22 06:37:44;;;;;;;11.60;3.80;;;17.20;99.90;;;;;;5056149;28;20410;-76
2022/07/22 06:40:11;;;;;;;10.67;3.47;;;17.10;99.90;;;;;;5056275;28;20751;-70
2022/07/22 06:42:38;;;;;;;11.50;3.40;;;17.10;99.90;;;;;;5055365;28;20406;-70
2022/07/22 06:45:04;;;;;;;10.90;3.47;;;17.10;99.90;;;;;;5055781;28;20421;-76
2022/07/22 06:47:31;;;;;;;8.13;3.93;;;17.20;99.90;;;;;;5056046;28;20398;-70
2022/07/22 06:53:28;;;;;;;8.37;3.30;;;17.20;99.90;;;;;;5054439;28;21032;-70
2022/07/22 06:55:54;;;;;;;3.70;2.93;;;17.30;99.90;;;;;;5055745;28;20405;-69
2022/07/22 06:58:20;;;;;;;10.30;3.90;;;17.30;99.90;;;;;;5055716;28;20393;-71
2022/07/22 07:00:46;;;;;;;5.27;2.40;;;17.20;99.90;;;;;;5055777;28;20754;-69
2022/07/22 07:03:12;;;;;;;9.30;2.83;;;17.20;99.90;;;;;;5054909;28;20410;-75
2022/07/22 07:05:38;;;;;;;11.43;3.33;;;17.20;99.90;;;;;;5055425;28;20424;-70
2022/07/22 07:08:04;;;;;;;16.07;5.07;;;17.20;99.90;;;;;;5055169;28;20417;-71
2022/07/22 07:10:30;;;;;;;9.97;2.50;;;17.30;99.90;;;;;;5055022;28;20459;-70
2022/07/22 07:12:58;;;;;;;6.03;2.63;;;17.40;99.90;;;;;;5053496;28;20499;-72
2022/07/22 07:15:25;;;;;;;7.83;2.50;;;17.50;99.90;;;;;;5055298;28;20503;-70
2022/07/22 07:17:57;;;;;;;6.50;2.73;;;17.70;99.90;;;;;;5055351;28;20487;-70
2022/07/22 07:20:24;;;;;;;9.97;3.27;;;17.80;99.90;;;;;;5055275;28;20401;-70
2022/07/22 07:22:52;;;;;;;9.73;2.80;;;17.80;99.90;;;;;;5054701;28;20879;-76
2022/07/22 07:25:19;;;;;;;16.43;3.10;;;17.80;99.90;;;;;;5053191;28;20437;-71
2022/07/22 07:27:45;;;;;;;8.83;2.50;;;17.70;99.90;;;;;;5055057;28;20397;-69
2022/07/22 07:30:11;;;;;;;6.20;2.40;;;17.60;99.90;;;;;;5055179;28;20397;-74
2022/07/22 07:32:38;;;;;;;4.60;2.63;;;17.60;99.90;;;;;;5054317;28;20498;-70
2022/07/22 07:35:06;;;;;;;17.50;2.90;;;17.60;99.90;;;;;;5054136;28;20442;-71
2022/07/22 07:37:41;;;;;;;6.70;2.70;;;17.60;99.90;;;;;;5054893;28;20433;-75
2022/07/22 07:40:10;;;;;;;8.73;2.20;;;17.70;99.90;;;;;;5055108;28;20433;-69
2022/07/22 07:42:37;;;;;;;3.47;2.57;;;17.80;99.90;;;;;;5054197;28;20410;-70
2022/07/22 07:45:04;;;;;;;7.30;2.77;;;17.90;99.90;;;;;;5053723;28;20413;-73
2022/07/22 07:47:30;;;;;;;11.20;2.80;;;18.00;99.90;;;;;;5054721;28;20386;-70
2022/07/22 07:49:57;;;;;;;4.30;2.60;;;18.10;99.90;;;;;;5054743;28;20744;-70
2022/07/22 07:52:24;;;;;;;4.30;2.43;;;18.10;99.90;;;;;;5052738;28;20471;-75
2022/07/22 07:54:49;;;;;;;5.60;2.90;;;18.10;99.90;;;;;;5054663;28;20421;-69
2022/07/22 07:57:15;;;;;;;6.00;2.97;;;18.00;99.90;;;;;;5054499;28;20405;-75
2022/07/22 07:59:44;;;;;;;12.87;3.37;;;18.00;99.90;;;;;;5054405;28;20428;-71
2022/07/22 08:02:10;;;;;;;3.43;2.33;;;18.00;99.90;;;;;;5053874;28;20412;-71
2022/07/22 08:04:39;;;;;;;13.13;3.10;;;17.90;99.90;;;;;;5053042;28;20421;-75
2022/07/22 08:07:06;;;;;;;11.17;3.90;;;17.90;99.90;;;;;;5054003;28;20238;-69
2022/07/22 08:09:35;;;;;;;12.17;2.47;;;17.80;99.90;;;;;;5054495;28;20436;-70
2022/07/22 08:12:01;;;;;;;7.13;2.13;;;17.90;99.90;;;;;;5054168;28;20409;-74
2022/07/22 08:14:26;;;;;;;17.30;3.67;;;17.90;99.90;;;;;;5053581;28;20465;-70
2022/07/22 08:16:52;;;;;;;6.37;2.73;;;17.80;87.80;;;;;;5053276;28;20452;-71
2022/07/22 08:19:18;;;;;;;8.47;2.30;;;17.80;89.50;;;;;;5054663;28;20554;-70
2022/07/22 08:21:45;;;;;;;4.83;2.70;;;17.80;94.90;;;;;;5053499;28;20493;-73
2022/07/22 08:24:10;;;;;;;5.70;2.60;;;17.80;94.90;;;;;;5052537;28;20475;-72
2022/07/22 08:26:36;;;;;;;6.93;2.40;;;17.80;81.80;;;;;;5054048;28;20433;-72
2022/07/22 08:29:04;;;;;;;4.57;2.10;;;17.80;80.00;;;;;;5052911;28;20179;-75
2022/07/22 08:31:34;;;;;;;4.70;1.97;;;18.00;82.40;;;;;;5054029;28;20437;-74
2022/07/22 08:34:13;;;;;;;11.73;2.60;;;18.20;94.50;;;;;;5053085;28;20538;-72
2022/07/22 08:36:39;;;;;;;4.43;2.53;;;18.40;86.80;;;;;;5053973;28;20402;-72
2022/07/22 08:39:08;;;;;;;7.40;2.60;;;18.60;80.10;;;;;;5053832;28;20408;-72
2022/07/22 08:41:36;;;;;;;14.70;3.50;;;18.70;66.10;;;;;;5053423;28;20398;-74
2022/07/22 08:44:05;;;;;;;12.47;2.63;;;18.80;66.30;;;;;;5052676;28;20429;-76
2022/07/22 08:46:31;;;;;;;6.10;1.83;;;18.80;63.40;;;;;;5053644;28;20405;-72
2022/07/22 08:49:00;;;;;;;5.60;2.57;;;18.70;34.40;;;;;;5053545;28;20401;-73
2022/07/22 08:51:35;;;;;;;12.80;2.40;;;18.60;38.40;;;;;;5053620;28;20492;-75
2022/07/22 08:54:01;;;;;;;9.50;2.63;;;18.80;29.60;;;;;;5052800;28;20611;-74
2022/07/22 08:56:27;;;;;;;4.37;2.20;;;18.90;23.60;;;;;;5053509;28;20927;-72
2022/07/22 08:58:53;;;;;;;4.20;1.87;;;18.90;23.90;;;;;;5052895;28;20394;-73
2022/07/22 09:07:50;;;;;;;9.73;2.27;;;19.00;1.00;;;;;;5031382;28;20432;-74
2022/07/22 09:10:19;;;;;;;9.93;2.43;;;18.90;1.00;;;;;;5053170;28;20405;-71
2022/07/22 09:12:59;;;;;;;4.80;2.10;;;19.00;1.00;;;;;;5052641;28;20198;-72
2022/07/22 09:15:29;;;;;;;2.03;1.60;;;19.10;1.00;;;;;;5053170;28;20453;-72
2022/07/22 09:17:58;;;;;;;5.30;1.80;;;19.10;1.00;;;;;;5051961;28;20443;-72
2022/07/22 09:20:26;;;;;;;4.03;1.77;;;18.90;1.00;;;;;;5051523;28;21002;-74
2022/07/22 09:22:52;;;;;;;4.23;2.13;;;18.80;1.00;;;;;;5052166;28;20405;-72
2022/07/22 09:25:35;;;;;;;5.90;1.93;;;18.90;1.00;;;;;;5052460;28;20940;-72
2022/07/22 09:28:07;;;;;;;4.83;1.57;;;18.90;1.00;;;;;;5052854;28;20402;-75
2022/07/22 09:30:44;;;;;;;3.93;1.90;;;18.80;1.00;;;;;;5052670;28;20710;-74
2022/07/22 09:33:11;;;;;;;4.10;2.57;;;18.80;1.00;;;;;;5051426;28;20752;-72
2022/07/22 09:35:39;;;;;;;4.13;1.63;;;18.80;1.00;;;;;;5052210;28;20451;-71
2022/07/22 09:38:07;;;;;;;10.10;2.03;;;18.80;1.00;;;;;;5052628;28;20398;-71
2022/07/22 09:40:35;;;;;;;6.93;1.73;;;18.60;1.00;;;;;;5052531;28;20488;-71
2022/07/22 09:43:11;;;;;;;4.93;1.80;;;18.50;1.00;;;;;;5050957;28;20425;-74
2022/07/22 09:45:57;;;;;;;2.30;1.60;;;18.50;1.00;;;;;;5052842;28;20432;-73
2022/07/22 09:48:24;;;;;;;3.70;2.00;;;18.60;1.00;;;;;;5052769;28;20405;-73
2022/07/22 09:50:52;;;;;;;5.43;1.20;;;18.80;1.00;;;;;;5052697;28;21005;-69
2022/07/22 09:53:29;;;;;;;3.07;1.80;;;18.80;1.00;;;;;;5051351;28;20498;-72
2022/07/22 09:55:58;;;;;;;1.83;1.20;;;18.80;1.00;;;;;;5052720;28;20409;-71
2022/07/22 09:58:44;;;;;;;5.60;2.10;;;18.80;1.00;;;;;;5056076;28;20424;-73
2022/07/22 10:01:11;;;;;;;4.47;1.77;;;18.70;1.00;;;;;;5055890;28;20401;-73
2022/07/22 10:03:40;;;;;;;4.50;1.53;;;18.40;1.00;;;;;;5056046;28;20406;-73
2022/07/22 10:06:06;;;;;;;6.80;2.10;;;18.30;1.00;;;;;;5056802;28;20405;-69
2022/07/22 10:08:33;;;;;;;8.00;2.30;;;18.30;1.00;;;;;;5056708;28;20905;-72
2022/07/22 10:11:02;;;;;;;3.17;1.73;;;18.00;1.00;;;;;;5056093;28;20397;-70
2022/07/22 10:13:28;;;;;;;2.10;1.53;;;18.10;1.00;;;;;;5055655;28;20456;-68
2022/07/22 10:15:56;;;;;;;9.37;1.63;;;18.00;1.00;;;;;;5055498;28;20876;-68
2022/07/22 10:18:22;;;;;;;4.57;1.90;;;18.20;1.00;;;;;;5056640;28;20404;-73
2022/07/22 10:20:59;;;;;;;3.50;1.50;;;18.30;1.00;;;;;;5056278;28;20455;-73
2022/07/22 10:23:26;;;;;;;4.40;1.30;;;18.30;1.00;;;;;;5055653;28;20408;-73
2022/07/22 10:25:58;;;;;;;2.53;1.40;;;18.40;1.00;;;;;;5056517;28;20413;-70
2022/07/22 10:28:32;;;;;;;3.10;1.57;;;18.50;1.00;;;;;;5056402;28;20599;-69
2022/07/22 10:31:18;;;;;;;3.07;1.70;;;18.60;1.00;;;;;;5055762;28;20412;-74
2022/07/22 10:33:47;;;;;;;2.10;1.43;;;18.50;1.00;;;;;;5054277;28;20463;-73
2022/07/22 10:36:13;;;;;;;2.53;1.57;;;18.70;1.00;;;;;;5056158;28;20754;-74
2022/07/22 10:39:09;;;;;;;5.10;1.80;;;18.70;1.00;;;;;;5056125;28;20405;-72
2022/07/22 10:41:41;;;;;;;4.90;2.13;;;19.00;1.00;;;;;;5056071;28;20489;-69
2022/07/22 10:44:09;;;;;;;3.53;1.40;;;19.30;1.00;;;;;;5055353;28;20433;-69
2022/07/22 10:46:51;;;;;;;5.07;1.87;;;19.60;1.00;;;;;;5055821;28;20448;-68
2022/07/22 10:49:20;;;;;;;3.20;2.53;;;19.90;1.00;;;;;;5055631;28;20419;-73
2022/07/22 10:52:16;;;;;;;2.80;1.30;;;20.20;1.00;;;;;;5056009;28;20485;-67
2022/07/22 10:55:16;;;;;;;2.20;1.33;;;20.30;1.00;;;;;;5055657;28;20506;-73
2022/07/22 10:57:42;;;;;;;1.50;1.23;;;20.00;1.00;;;;;;5055919;28;20389;-67
2022/07/22 11:00:09;;;;;;;4.67;1.70;;;19.90;1.00;;;;;;5055738;28;20815;-73
2022/07/22 11:02:39;;;;;;;10.63;2.37;;;19.90;1.00;;;;;;5055020;28;20743;-71
2022/07/22 11:05:08;;;;;;;4.00;1.53;;;20.30;1.00;;;;;;5055493;28;20417;-73
2022/07/22 11:07:40;;;;;;;1.73;1.47;;;20.70;1.00;;;;;;5055021;28;20404;-73
2022/07/22 11:10:13;;;;;;;6.03;2.47;;;20.70;1.00;;;;;;5054477;28;20390;-73
2022/07/22 11:12:40;;;;;;;2.13;1.30;;;20.70;1.00;;;;;;5054853;28;20444;-73
2022/07/22 11:15:07;;;;;;;4.43;1.53;;;20.50;1.00;;;;;;5055329;28;20417;-67
2022/07/22 11:17:37;;;;;;;1.47;1.33;;;20.00;1.00;;;;;;5055372;28;20401;-67
2022/07/22 11:20:07;;;;;;;2.13;1.10;;;19.70;1.00;;;;;;5055420;28;20416;-72
2022/07/22 11:22:34;;;;;;;8.27;1.77;;;19.80;1.00;;;;;;5053387;28;20448;-73
2022/07/22 11:25:08;;;;;;;6.50;1.80;;;20.40;1.00;;;;;;5055002;28;20914;-67
2022/07/22 11:27:34;;;;;;;4.00;1.43;;;20.50;1.00;;;;;;5055169;28;20401;-73
2022/07/22 11:30:00;;;;;;;8.10;1.50;;;20.40;1.00;;;;;;5055219;28;20411;-68
2022/07/22 11:32:31;;;;;;;8.50;1.80;;;20.20;1.00;;;;;;5054514;28;20159;-67
2022/07/22 11:34:58;;;;;;;2.00;1.13;;;20.30;1.00;;;;;;5055033;28;20794;-68
2022/07/22 11:37:26;;;;;;;3.67;1.97;;;20.40;1.00;;;;;;5053741;28;20397;-73
2022/07/22 11:40:04;;;;;;;2.70;1.30;;;20.60;1.00;;;;;;5054672;28;20398;-68
2022/07/22 11:42:30;;;;;;;5.70;1.50;;;20.60;1.00;;;;;;5054187;28;20406;-74
2022/07/22 11:44:57;;;;;;;3.77;1.70;;;20.60;1.00;;;;;;5055317;28;20455;-68
2022/07/22 11:47:23;;;;;;;4.13;1.30;;;20.60;1.00;;;;;;5054772;28;20394;-67
2022/07/22 11:50:09;;;;;;;8.37;1.40;;;20.60;1.00;;;;;;5054821;28;20484;-73
2022/07/22 11:52:35;;;;;;;2.50;1.10;;;20.50;1.00;;;;;;5052491;28;20420;-67
2022/07/22 11:55:01;;;;;;;4.37;1.40;;;20.30;1.00;;;;;;5054458;28;20429;-69
2022/07/22 11:57:27;;;;;;;3.77;1.20;;;20.20;1.00;;;;;;5053963;28;20175;-69
2022/07/22 11:59:53;;;;;;;4.53;1.30;;;20.30;1.00;;;;;;5054655;28;20177;-71
2022/07/22 12:02:22;;;;;;;1.67;1.40;;;20.30;1.00;;;;;;5053649;28;20163;-67
2022/07/22 12:04:52;;;;;;;3.77;1.53;;;20.70;1.00;;;;;;5054422;28;20452;-66
2022/07/22 12:07:18;;;;;;;4.27;1.20;;;20.80;1.00;;;;;;5054458;28;20405;-67
2022/07/22 12:09:45;;;;;;;4.90;1.00;;;20.60;1.00;;;;;;5054255;28;20401;-74
2022/07/22 12:12:18;;;;;;;4.40;1.27;;;20.10;1.00;;;;;;5053587;28;20953;-71
2022/07/22 12:14:47;;;;;;;2.97;1.57;;;19.90;1.00;;;;;;5053790;28;20461;-67
2022/07/22 12:17:26;;;;;;;6.13;1.60;;;19.80;1.00;;;;;;5053938;28;20479;-67
2022/07/22 12:19:52;;;;;;;3.30;1.77;;;19.70;1.00;;;;;;5053897;28;20774;-68
2022/07/22 12:22:22;;;;;;;4.00;1.80;;;19.80;1.00;;;;;;5053318;28;20467;-67
2022/07/22 12:25:00;;;;;;;4.73;1.50;;;19.80;1.00;;;;;;5053974;28;20429;-74
2022/07/22 12:27:26;;;;;;;3.17;1.10;;;19.90;1.00;;;;;;5054013;28;20401;-67
2022/07/22 12:29:52;;;;;;;2.90;1.00;;;20.60;1.00;;;;;;5054010;28;20463;-71
2022/07/22 12:32:22;;;;;;;5.80;1.73;;;20.90;1.00;;;;;;5053090;28;20245;-67
2022/07/22 12:34:54;;;;;;;3.47;1.47;;;20.90;1.00;;;;;;5053216;28;20285;-68
2022/07/22 12:37:29;;;;;;;7.17;2.33;;;21.00;1.00;;;;;;5052933;28;20409;-75
2022/07/22 12:39:58;;;;;;;3.20;1.40;;;20.90;1.00;;;;;;5053769;28;20416;-67
2022/07/22 12:42:28;;;;;;;3.63;1.13;;;20.90;1.00;;;;;;5051783;28;20917;-74
2022/07/22 12:45:02;;;;;;;4.10;1.50;;;20.60;1.00;;;;;;5053690;28;20429;-75
2022/07/22 12:47:50;;;;;;;1.70;1.20;;;20.70;1.00;;;;;;5053735;28;20402;-67
2022/07/22 12:50:21;;;;;;;4.97;1.23;;;20.60;1.00;;;;;;5053508;28;20416;-69
2022/07/22 12:52:49;;;;;;;2.80;1.10;;;20.80;1.00;;;;;;5051306;28;20500;-76
2022/07/22 12:55:15;;;;;;;4.07;1.57;;;20.80;1.00;;;;;;5053564;28;20998;-67
2022/07/22 12:57:44;;;;;;;5.13;2.07;;;20.70;1.00;;;;;;5052294;28;20774;-74
2022/07/22 13:00:16;;;;;;;5.53;1.33;;;20.10;1.00;;;;;;5053411;28;20406;-74
2022/07/22 13:02:42;;;;;;;5.53;1.73;;;19.90;1.00;;;;;;5051332;28;20793;-74
2022/07/22 13:05:08;;;;;;;2.10;1.60;;;19.90;1.00;;;;;;5052418;28;20516;-74
2022/07/22 13:07:34;;;;;;;4.30;1.63;;;20.00;1.00;;;;;;5053263;28;20420;-67
2022/07/22 13:10:02;;;;;;;2.53;1.40;;;20.10;1.00;;;;;;5051293;28;20417;-69
2022/07/22 13:12:28;;;;;;;3.50;1.23;;;20.00;1.00;;;;;;5050871;28;20452;-69
2022/07/22 13:14:54;;;;;;;4.87;1.77;;;20.00;1.00;;;;;;5051967;28;20460;-67
2022/07/22 13:20:39;;;;;;;2.53;1.67;;;20.30;1.00;;;;;;5030876;28;20167;-67